sensor_id;sensor_type;location;lat;lon;timestamp;P1;durP1;ratioP1;P2;durP2;ratioP2
64619;SDS011;51029;51.058;13.826;2022-12-01T00:02:03;44.47;;;24.13;;
64619;SDS011;51029;51.058;13.826;2022-12-01T00:04:28;45.03;;;25.30;;
64619;SDS011;51029;51.058;13.826;2022-12-01T00:06:54;46.80;;;26.40;;
64619;SDS011;51029;51.058;13.826;2022-12-01T00:09:20;49.47;;;25.97;;
64619;SDS011;51029;51.058;13.826;2022-12-01T00:12:04;44.50;;;25.03;;
64619;SDS011;51029;51.058;13.826;2022-12-01T00:14:29;42.57;;;25.03;;
64619;SDS011;51029;51.058;13.826;2022-12-01T00:16:55;43.60;;;24.17;;
64619;SDS011;51029;51.058;13.826;2022-12-01T00:19:24;43.00;;;23.47;;
64619;SDS011;51029;51.058;13.826;2022-12-01T00:21:50;46.97;;;25.90;;
64619;SDS011;51029;51.058;13.826;2022-12-01T00:24:16;46.73;;;24.73;;
64619;SDS011;51029;51.058;13.826;2022-12-01T00:26:41;45.27;;;25.83;;
64619;SDS011;51029;51.058;13.826;2022-12-01T00:29:07;50.90;;;26.53;;
64619;SDS011;51029;51.058;13.826;2022-12-01T00:31:33;52.93;;;27.43;;
64619;SDS011;51029;51.058;13.826;2022-12-01T00:33:58;53.27;;;27.07;;
64619;SDS011;51029;51.058;13.826;2022-12-01T00:36:24;49.43;;;27.33;;
64619;SDS011;51029;51.058;13.826;2022-12-01T00:38:50;53.87;;;27.17;;
64619;SDS011;51029;51.058;13.826;2022-12-01T00:41:17;52.70;;;27.13;;
64619;SDS011;51029;51.058;13.826;2022-12-01T00:43:43;52.27;;;26.80;;
64619;SDS011;51029;51.058;13.826;2022-12-01T00:46:08;48.03;;;26.27;;
64619;SDS011;51029;51.058;13.826;2022-12-01T00:48:34;52.53;;;27.30;;
64619;SDS011;51029;51.058;13.826;2022-12-01T00:50:59;49.30;;;26.30;;
64619;SDS011;51029;51.058;13.826;2022-12-01T00:53:25;51.60;;;26.77;;
64619;SDS011;51029;51.058;13.826;2022-12-01T00:55:51;49.57;;;26.27;;
64619;SDS011;51029;51.058;13.826;2022-12-01T00:58:20;52.83;;;27.53;;
64619;SDS011;51029;51.058;13.826;2022-12-01T01:00:46;48.60;;;26.37;;
64619;SDS011;51029;51.058;13.826;2022-12-01T01:03:11;50.73;;;26.67;;
64619;SDS011;51029;51.058;13.826;2022-12-01T01:05:37;50.30;;;26.47;;
64619;SDS011;51029;51.058;13.826;2022-12-01T01:08:07;52.77;;;27.27;;
64619;SDS011;51029;51.058;13.826;2022-12-01T01:10:38;49.07;;;26.00;;
64619;SDS011;51029;51.058;13.826;2022-12-01T01:13:04;51.37;;;26.73;;
64619;SDS011;51029;51.058;13.826;2022-12-01T01:15:30;48.00;;;26.17;;
64619;SDS011;51029;51.058;13.826;2022-12-01T01:17:55;50.13;;;26.13;;
64619;SDS011;51029;51.058;13.826;2022-12-01T01:20:21;48.83;;;27.40;;
64619;SDS011;51029;51.058;13.826;2022-12-01T01:22:46;50.40;;;26.80;;
64619;SDS011;51029;51.058;13.826;2022-12-01T01:25:12;51.43;;;27.97;;
64619;SDS011;51029;51.058;13.826;2022-12-01T01:27:37;47.23;;;26.33;;
64619;SDS011;51029;51.058;13.826;2022-12-01T01:30:03;47.73;;;25.33;;
64619;SDS011;51029;51.058;13.826;2022-12-01T01:32:29;53.33;;;27.33;;
64619;SDS011;51029;51.058;13.826;2022-12-01T01:34:55;49.07;;;26.57;;
64619;SDS011;51029;51.058;13.826;2022-12-01T01:37:20;53.57;;;28.03;;
64619;SDS011;51029;51.058;13.826;2022-12-01T01:39:46;50.40;;;26.27;;
64619;SDS011;51029;51.058;13.826;2022-12-01T01:42:12;50.47;;;26.47;;
64619;SDS011;51029;51.058;13.826;2022-12-01T01:44:46;48.47;;;25.63;;
64619;SDS011;51029;51.058;13.826;2022-12-01T01:47:12;49.17;;;25.67;;
64619;SDS011;51029;51.058;13.826;2022-12-01T01:49:39;50.77;;;26.20;;
64619;SDS011;51029;51.058;13.826;2022-12-01T01:52:06;48.73;;;25.83;;
64619;SDS011;51029;51.058;13.826;2022-12-01T01:54:33;47.20;;;26.50;;
64619;SDS011;51029;51.058;13.826;2022-12-01T01:57:04;49.20;;;25.20;;
64619;SDS011;51029;51.058;13.826;2022-12-01T01:59:42;50.47;;;26.03;;
64619;SDS011;51029;51.058;13.826;2022-12-01T02:02:10;48.70;;;25.50;;
64619;SDS011;51029;51.058;13.826;2022-12-01T02:04:38;50.87;;;25.90;;
64619;SDS011;51029;51.058;13.826;2022-12-01T02:07:06;45.73;;;25.53;;
64619;SDS011;51029;51.058;13.826;2022-12-01T02:09:32;53.23;;;26.50;;
64619;SDS011;51029;51.058;13.826;2022-12-01T02:12:02;53.90;;;26.53;;
64619;SDS011;51029;51.058;13.826;2022-12-01T02:18:05;55.57;;;26.70;;
64619;SDS011;51029;51.058;13.826;2022-12-01T02:20:44;55.83;;;28.27;;
64619;SDS011;51029;51.058;13.826;2022-12-01T02:34:42;54.70;;;28.63;;
64619;SDS011;51029;51.058;13.826;2022-12-01T02:39:56;51.20;;;26.23;;
64619;SDS011;51029;51.058;13.826;2022-12-01T02:42:39;57.10;;;27.47;;
64619;SDS011;51029;51.058;13.826;2022-12-01T02:45:21;51.77;;;25.83;;
64619;SDS011;51029;51.058;13.826;2022-12-01T02:47:52;47.73;;;23.83;;
64619;SDS011;51029;51.058;13.826;2022-12-01T02:50:20;54.07;;;25.33;;
64619;SDS011;51029;51.058;13.826;2022-12-01T02:52:49;52.00;;;25.53;;
64619;SDS011;51029;51.058;13.826;2022-12-01T02:55:14;50.40;;;25.17;;
64619;SDS011;51029;51.058;13.826;2022-12-01T02:57:40;50.83;;;25.73;;
64619;SDS011;51029;51.058;13.826;2022-12-01T03:00:06;54.80;;;25.63;;
64619;SDS011;51029;51.058;13.826;2022-12-01T03:05:25;57.53;;;26.47;;
64619;SDS011;51029;51.058;13.826;2022-12-01T03:16:17;58.50;;;26.93;;
64619;SDS011;51029;51.058;13.826;2022-12-01T03:19:02;59.67;;;27.70;;
64619;SDS011;51029;51.058;13.826;2022-12-01T03:21:40;56.57;;;25.37;;
64619;SDS011;51029;51.058;13.826;2022-12-01T03:24:13;61.37;;;27.70;;
64619;SDS011;51029;51.058;13.826;2022-12-01T03:26:41;65.03;;;27.30;;
64619;SDS011;51029;51.058;13.826;2022-12-01T03:29:13;61.53;;;27.00;;
64619;SDS011;51029;51.058;13.826;2022-12-01T03:31:45;54.53;;;25.60;;
64619;SDS011;51029;51.058;13.826;2022-12-01T03:34:16;57.00;;;25.27;;
64619;SDS011;51029;51.058;13.826;2022-12-01T03:36:54;55.00;;;26.33;;
64619;SDS011;51029;51.058;13.826;2022-12-01T03:39:28;59.63;;;25.93;;
64619;SDS011;51029;51.058;13.826;2022-12-01T03:41:59;58.03;;;25.60;;
64619;SDS011;51029;51.058;13.826;2022-12-01T03:44:33;62.17;;;26.57;;
64619;SDS011;51029;51.058;13.826;2022-12-01T03:47:09;56.10;;;26.53;;
64619;SDS011;51029;51.058;13.826;2022-12-01T03:49:38;66.37;;;31.00;;
64619;SDS011;51029;51.058;13.826;2022-12-01T03:54:54;58.33;;;25.80;;
64619;SDS011;51029;51.058;13.826;2022-12-01T04:00:16;66.43;;;28.07;;
64619;SDS011;51029;51.058;13.826;2022-12-01T04:02:44;63.27;;;27.80;;
64619;SDS011;51029;51.058;13.826;2022-12-01T04:05:10;63.57;;;29.30;;
64619;SDS011;51029;51.058;13.826;2022-12-01T04:07:37;61.90;;;28.37;;
64619;SDS011;51029;51.058;13.826;2022-12-01T04:10:03;62.70;;;28.77;;
64619;SDS011;51029;51.058;13.826;2022-12-01T04:12:29;60.17;;;26.10;;
64619;SDS011;51029;51.058;13.826;2022-12-01T04:14:57;71.67;;;28.90;;
64619;SDS011;51029;51.058;13.826;2022-12-01T04:17:24;64.20;;;28.73;;
64619;SDS011;51029;51.058;13.826;2022-12-01T04:19:50;69.00;;;28.37;;
64619;SDS011;51029;51.058;13.826;2022-12-01T04:22:16;64.77;;;27.97;;
64619;SDS011;51029;51.058;13.826;2022-12-01T04:24:41;67.07;;;28.90;;
64619;SDS011;51029;51.058;13.826;2022-12-01T04:27:07;67.10;;;27.90;;
64619;SDS011;51029;51.058;13.826;2022-12-01T04:29:32;74.37;;;29.03;;
64619;SDS011;51029;51.058;13.826;2022-12-01T04:31:58;70.27;;;30.10;;
64619;SDS011;51029;51.058;13.826;2022-12-01T04:34:23;62.27;;;27.33;;
64619;SDS011;51029;51.058;13.826;2022-12-01T04:36:49;64.63;;;27.43;;
64619;SDS011;51029;51.058;13.826;2022-12-01T04:39:15;66.67;;;28.43;;
64619;SDS011;51029;51.058;13.826;2022-12-01T04:41:40;63.97;;;26.73;;
64619;SDS011;51029;51.058;13.826;2022-12-01T04:44:06;65.33;;;28.57;;
64619;SDS011;51029;51.058;13.826;2022-12-01T04:46:33;66.33;;;28.43;;
64619;SDS011;51029;51.058;13.826;2022-12-01T04:48:58;67.60;;;29.30;;
64619;SDS011;51029;51.058;13.826;2022-12-01T04:51:24;70.80;;;28.30;;
64619;SDS011;51029;51.058;13.826;2022-12-01T04:53:49;70.43;;;29.27;;
64619;SDS011;51029;51.058;13.826;2022-12-01T04:56:15;62.07;;;29.43;;
64619;SDS011;51029;51.058;13.826;2022-12-01T04:58:41;70.63;;;29.00;;
64619;SDS011;51029;51.058;13.826;2022-12-01T05:01:08;78.37;;;30.80;;
64619;SDS011;51029;51.058;13.826;2022-12-01T05:03:36;68.60;;;30.63;;
64619;SDS011;51029;51.058;13.826;2022-12-01T05:06:04;77.20;;;29.83;;
64619;SDS011;51029;51.058;13.826;2022-12-01T05:08:35;67.80;;;28.90;;
64619;SDS011;51029;51.058;13.826;2022-12-01T05:11:01;68.10;;;29.27;;
64619;SDS011;51029;51.058;13.826;2022-12-01T05:13:27;73.20;;;29.57;;
64619;SDS011;51029;51.058;13.826;2022-12-01T05:15:52;74.37;;;29.73;;
64619;SDS011;51029;51.058;13.826;2022-12-01T05:18:18;69.47;;;27.90;;
64619;SDS011;51029;51.058;13.826;2022-12-01T05:20:43;67.17;;;30.03;;
64619;SDS011;51029;51.058;13.826;2022-12-01T05:23:21;71.00;;;28.33;;
64619;SDS011;51029;51.058;13.826;2022-12-01T05:25:48;71.40;;;29.93;;
64619;SDS011;51029;51.058;13.826;2022-12-01T05:28:13;65.43;;;28.73;;
64619;SDS011;51029;51.058;13.826;2022-12-01T05:30:39;73.57;;;29.07;;
64619;SDS011;51029;51.058;13.826;2022-12-01T05:33:05;69.40;;;29.67;;
64619;SDS011;51029;51.058;13.826;2022-12-01T05:35:34;71.60;;;28.47;;
64619;SDS011;51029;51.058;13.826;2022-12-01T05:37:59;71.63;;;30.07;;
64619;SDS011;51029;51.058;13.826;2022-12-01T05:40:25;77.20;;;32.27;;
64619;SDS011;51029;51.058;13.826;2022-12-01T05:42:51;67.20;;;30.80;;
64619;SDS011;51029;51.058;13.826;2022-12-01T05:45:16;71.63;;;31.23;;
64619;SDS011;51029;51.058;13.826;2022-12-01T05:47:42;74.07;;;32.00;;
64619;SDS011;51029;51.058;13.826;2022-12-01T05:50:08;71.43;;;30.13;;
64619;SDS011;51029;51.058;13.826;2022-12-01T05:52:34;70.47;;;30.87;;
64619;SDS011;51029;51.058;13.826;2022-12-01T05:55:00;67.57;;;28.17;;
64619;SDS011;51029;51.058;13.826;2022-12-01T05:57:26;70.70;;;29.17;;
64619;SDS011;51029;51.058;13.826;2022-12-01T05:59:52;69.30;;;29.83;;
64619;SDS011;51029;51.058;13.826;2022-12-01T06:02:17;68.83;;;29.23;;
64619;SDS011;51029;51.058;13.826;2022-12-01T06:04:43;69.87;;;29.70;;
64619;SDS011;51029;51.058;13.826;2022-12-01T06:07:08;67.53;;;28.70;;
64619;SDS011;51029;51.058;13.826;2022-12-01T06:09:34;69.20;;;31.50;;
64619;SDS011;51029;51.058;13.826;2022-12-01T06:11:59;72.37;;;31.17;;
64619;SDS011;51029;51.058;13.826;2022-12-01T06:14:25;71.37;;;30.20;;
64619;SDS011;51029;51.058;13.826;2022-12-01T06:16:51;71.47;;;30.57;;
64619;SDS011;51029;51.058;13.826;2022-12-01T06:19:16;70.47;;;30.33;;
64619;SDS011;51029;51.058;13.826;2022-12-01T06:21:42;87.00;;;36.23;;
64619;SDS011;51029;51.058;13.826;2022-12-01T06:24:08;117.00;;;51.73;;
64619;SDS011;51029;51.058;13.826;2022-12-01T06:26:34;81.73;;;34.17;;
64619;SDS011;51029;51.058;13.826;2022-12-01T06:28:59;79.77;;;32.23;;
64619;SDS011;51029;51.058;13.826;2022-12-01T06:31:25;74.07;;;30.60;;
64619;SDS011;51029;51.058;13.826;2022-12-01T06:33:50;67.17;;;30.20;;
64619;SDS011;51029;51.058;13.826;2022-12-01T06:36:16;71.40;;;30.90;;
64619;SDS011;51029;51.058;13.826;2022-12-01T06:38:42;68.93;;;31.03;;
64619;SDS011;51029;51.058;13.826;2022-12-01T06:41:07;60.93;;;28.07;;
64619;SDS011;51029;51.058;13.826;2022-12-01T06:43:36;73.03;;;31.33;;
64619;SDS011;51029;51.058;13.826;2022-12-01T06:46:02;70.67;;;30.30;;
64619;SDS011;51029;51.058;13.826;2022-12-01T06:48:29;72.53;;;29.83;;
64619;SDS011;51029;51.058;13.826;2022-12-01T06:50:58;73.77;;;31.20;;
64619;SDS011;51029;51.058;13.826;2022-12-01T06:53:24;78.20;;;31.53;;
64619;SDS011;51029;51.058;13.826;2022-12-01T06:55:52;77.43;;;31.93;;
64619;SDS011;51029;51.058;13.826;2022-12-01T06:58:18;81.53;;;33.37;;
64619;SDS011;51029;51.058;13.826;2022-12-01T07:00:43;82.27;;;34.30;;
64619;SDS011;51029;51.058;13.826;2022-12-01T07:03:09;80.17;;;33.87;;
64619;SDS011;51029;51.058;13.826;2022-12-01T07:05:35;78.47;;;32.43;;
64619;SDS011;51029;51.058;13.826;2022-12-01T07:08:00;77.43;;;34.50;;
64619;SDS011;51029;51.058;13.826;2022-12-01T07:10:27;71.70;;;33.50;;
64619;SDS011;51029;51.058;13.826;2022-12-01T07:12:54;71.70;;;33.57;;
64619;SDS011;51029;51.058;13.826;2022-12-01T07:15:21;78.10;;;34.63;;
64619;SDS011;51029;51.058;13.826;2022-12-01T07:17:48;74.33;;;33.63;;
64619;SDS011;51029;51.058;13.826;2022-12-01T07:20:14;72.57;;;33.80;;
64619;SDS011;51029;51.058;13.826;2022-12-01T07:22:40;72.83;;;32.63;;
64619;SDS011;51029;51.058;13.826;2022-12-01T07:25:07;72.00;;;33.30;;
64619;SDS011;51029;51.058;13.826;2022-12-01T07:27:33;72.83;;;33.53;;
64619;SDS011;51029;51.058;13.826;2022-12-01T07:29:59;75.50;;;34.77;;
64619;SDS011;51029;51.058;13.826;2022-12-01T07:32:25;72.30;;;32.57;;
64619;SDS011;51029;51.058;13.826;2022-12-01T07:34:51;75.37;;;34.10;;
64619;SDS011;51029;51.058;13.826;2022-12-01T07:37:16;74.83;;;33.93;;
64619;SDS011;51029;51.058;13.826;2022-12-01T07:39:42;74.13;;;33.80;;
64619;SDS011;51029;51.058;13.826;2022-12-01T07:42:07;75.00;;;34.20;;
64619;SDS011;51029;51.058;13.826;2022-12-01T07:44:33;71.57;;;33.80;;
64619;SDS011;51029;51.058;13.826;2022-12-01T07:46:58;75.27;;;34.90;;
64619;SDS011;51029;51.058;13.826;2022-12-01T07:49:24;77.73;;;35.73;;
64619;SDS011;51029;51.058;13.826;2022-12-01T07:51:49;75.27;;;37.40;;
64619;SDS011;51029;51.058;13.826;2022-12-01T07:54:15;75.47;;;33.60;;
64619;SDS011;51029;51.058;13.826;2022-12-01T07:56:44;73.80;;;33.17;;
64619;SDS011;51029;51.058;13.826;2022-12-01T07:59:09;75.87;;;35.63;;
64619;SDS011;51029;51.058;13.826;2022-12-01T08:01:36;78.70;;;35.50;;
64619;SDS011;51029;51.058;13.826;2022-12-01T08:04:02;81.23;;;35.80;;
64619;SDS011;51029;51.058;13.826;2022-12-01T08:06:28;78.70;;;35.97;;
64619;SDS011;51029;51.058;13.826;2022-12-01T08:08:54;74.40;;;35.10;;
64619;SDS011;51029;51.058;13.826;2022-12-01T08:11:21;81.73;;;36.87;;
64619;SDS011;51029;51.058;13.826;2022-12-01T08:13:49;75.73;;;35.93;;
64619;SDS011;51029;51.058;13.826;2022-12-01T08:16:16;73.07;;;34.53;;
64619;SDS011;51029;51.058;13.826;2022-12-01T08:18:43;79.10;;;37.20;;
64619;SDS011;51029;51.058;13.826;2022-12-01T08:21:13;82.33;;;36.73;;
64619;SDS011;51029;51.058;13.826;2022-12-01T08:23:41;79.50;;;37.07;;
64619;SDS011;51029;51.058;13.826;2022-12-01T08:26:08;82.20;;;40.10;;
64619;SDS011;51029;51.058;13.826;2022-12-01T08:28:37;86.17;;;39.20;;
64619;SDS011;51029;51.058;13.826;2022-12-01T08:31:06;76.63;;;36.33;;
64619;SDS011;51029;51.058;13.826;2022-12-01T08:33:32;78.77;;;36.63;;
64619;SDS011;51029;51.058;13.826;2022-12-01T08:36:00;79.47;;;37.00;;
64619;SDS011;51029;51.058;13.826;2022-12-01T08:38:26;91.63;;;41.40;;
64619;SDS011;51029;51.058;13.826;2022-12-01T08:40:52;86.67;;;40.30;;
64619;SDS011;51029;51.058;13.826;2022-12-01T08:43:20;90.00;;;38.53;;
64619;SDS011;51029;51.058;13.826;2022-12-01T08:45:45;84.40;;;39.93;;
64619;SDS011;51029;51.058;13.826;2022-12-01T08:48:11;89.40;;;38.57;;
64619;SDS011;51029;51.058;13.826;2022-12-01T08:50:37;88.73;;;40.30;;
64619;SDS011;51029;51.058;13.826;2022-12-01T08:53:02;82.83;;;37.70;;
64619;SDS011;51029;51.058;13.826;2022-12-01T08:55:28;83.80;;;37.40;;
64619;SDS011;51029;51.058;13.826;2022-12-01T08:57:53;87.63;;;38.70;;
64619;SDS011;51029;51.058;13.826;2022-12-01T09:00:19;90.90;;;40.93;;
64619;SDS011;51029;51.058;13.826;2022-12-01T09:02:44;84.97;;;39.67;;
64619;SDS011;51029;51.058;13.826;2022-12-01T09:05:10;98.07;;;42.20;;
64619;SDS011;51029;51.058;13.826;2022-12-01T09:07:35;88.03;;;39.03;;
64619;SDS011;51029;51.058;13.826;2022-12-01T09:10:01;91.00;;;39.17;;
64619;SDS011;51029;51.058;13.826;2022-12-01T09:12:27;112.63;;;46.60;;
64619;SDS011;51029;51.058;13.826;2022-12-01T09:14:53;93.07;;;39.83;;
64619;SDS011;51029;51.058;13.826;2022-12-01T09:17:19;84.23;;;38.00;;
64619;SDS011;51029;51.058;13.826;2022-12-01T09:19:44;91.37;;;40.17;;
64619;SDS011;51029;51.058;13.826;2022-12-01T09:22:10;90.40;;;40.20;;
64619;SDS011;51029;51.058;13.826;2022-12-01T09:24:36;84.73;;;39.73;;
64619;SDS011;51029;51.058;13.826;2022-12-01T09:27:02;86.57;;;39.83;;
64619;SDS011;51029;51.058;13.826;2022-12-01T09:29:29;85.30;;;39.73;;
64619;SDS011;51029;51.058;13.826;2022-12-01T09:31:55;91.37;;;39.03;;
64619;SDS011;51029;51.058;13.826;2022-12-01T09:34:22;80.87;;;38.13;;
64619;SDS011;51029;51.058;13.826;2022-12-01T09:36:48;81.70;;;39.23;;
64619;SDS011;51029;51.058;13.826;2022-12-01T09:39:15;82.17;;;38.17;;
64619;SDS011;51029;51.058;13.826;2022-12-01T09:41:58;78.10;;;36.53;;
64619;SDS011;51029;51.058;13.826;2022-12-01T09:47:16;86.53;;;38.43;;
64619;SDS011;51029;51.058;13.826;2022-12-01T09:50:09;82.67;;;38.10;;
64619;SDS011;51029;51.058;13.826;2022-12-01T09:52:49;74.17;;;37.13;;
64619;SDS011;51029;51.058;13.826;2022-12-01T09:55:24;76.93;;;37.00;;
64619;SDS011;51029;51.058;13.826;2022-12-01T09:57:51;75.13;;;36.93;;
64619;SDS011;51029;51.058;13.826;2022-12-01T10:00:19;82.77;;;38.93;;
64619;SDS011;51029;51.058;13.826;2022-12-01T10:02:55;71.93;;;35.37;;
64619;SDS011;51029;51.058;13.826;2022-12-01T10:05:30;75.67;;;37.03;;
64619;SDS011;51029;51.058;13.826;2022-12-01T10:08:07;73.77;;;38.17;;
64619;SDS011;51029;51.058;13.826;2022-12-01T10:10:47;76.23;;;38.60;;
64619;SDS011;51029;51.058;13.826;2022-12-01T10:13:18;79.47;;;38.63;;
64619;SDS011;51029;51.058;13.826;2022-12-01T10:15:49;78.23;;;37.13;;
64619;SDS011;51029;51.058;13.826;2022-12-01T10:26:19;71.80;;;35.83;;
64619;SDS011;51029;51.058;13.826;2022-12-01T10:32:00;73.10;;;36.70;;
64619;SDS011;51029;51.058;13.826;2022-12-01T10:34:31;75.37;;;37.10;;
64619;SDS011;51029;51.058;13.826;2022-12-01T10:37:00;72.90;;;36.40;;
64619;SDS011;51029;51.058;13.826;2022-12-01T10:39:32;77.20;;;37.17;;
64619;SDS011;51029;51.058;13.826;2022-12-01T10:42:05;73.87;;;34.70;;
64619;SDS011;51029;51.058;13.826;2022-12-01T10:44:41;74.60;;;37.77;;
64619;SDS011;51029;51.058;13.826;2022-12-01T10:47:15;75.03;;;36.17;;
64619;SDS011;51029;51.058;13.826;2022-12-01T10:49:47;71.67;;;36.80;;
64619;SDS011;51029;51.058;13.826;2022-12-01T10:52:34;72.80;;;36.63;;
64619;SDS011;51029;51.058;13.826;2022-12-01T10:55:25;73.80;;;35.37;;
64619;SDS011;51029;51.058;13.826;2022-12-01T10:57:55;75.10;;;36.37;;
64619;SDS011;51029;51.058;13.826;2022-12-01T11:00:24;80.23;;;38.60;;
64619;SDS011;51029;51.058;13.826;2022-12-01T11:02:52;72.40;;;36.10;;
64619;SDS011;51029;51.058;13.826;2022-12-01T11:07:45;68.13;;;35.13;;
64619;SDS011;51029;51.058;13.826;2022-12-01T11:12:44;74.67;;;36.90;;
64619;SDS011;51029;51.058;13.826;2022-12-01T11:15:20;68.03;;;35.27;;
64619;SDS011;51029;51.058;13.826;2022-12-01T11:17:55;68.33;;;35.13;;
64619;SDS011;51029;51.058;13.826;2022-12-01T11:23:19;77.80;;;37.30;;
64619;SDS011;51029;51.058;13.826;2022-12-01T11:28:49;72.53;;;35.40;;
64619;SDS011;51029;51.058;13.826;2022-12-01T11:31:19;71.70;;;36.03;;
64619;SDS011;51029;51.058;13.826;2022-12-01T11:33:48;72.87;;;36.67;;
64619;SDS011;51029;51.058;13.826;2022-12-01T11:36:21;71.10;;;35.07;;
64619;SDS011;51029;51.058;13.826;2022-12-01T11:39:01;74.23;;;37.20;;
64619;SDS011;51029;51.058;13.826;2022-12-01T11:41:45;75.57;;;36.17;;
64619;SDS011;51029;51.058;13.826;2022-12-01T11:44:15;73.83;;;34.93;;
64619;SDS011;51029;51.058;13.826;2022-12-01T11:46:43;77.47;;;37.60;;
64619;SDS011;51029;51.058;13.826;2022-12-01T11:49:20;69.57;;;36.70;;
64619;SDS011;51029;51.058;13.826;2022-12-01T11:51:48;65.80;;;34.60;;
64619;SDS011;51029;51.058;13.826;2022-12-01T11:54:18;61.63;;;33.27;;
64619;SDS011;51029;51.058;13.826;2022-12-01T11:56:50;69.90;;;34.63;;
64619;SDS011;51029;51.058;13.826;2022-12-01T11:59:19;65.70;;;33.67;;
64619;SDS011;51029;51.058;13.826;2022-12-01T12:13:01;67.03;;;34.63;;
64619;SDS011;51029;51.058;13.826;2022-12-01T12:23:40;59.63;;;32.03;;
64619;SDS011;51029;51.058;13.826;2022-12-01T12:26:29;62.33;;;31.73;;
64619;SDS011;51029;51.058;13.826;2022-12-01T12:46:26;62.80;;;33.23;;
64619;SDS011;51029;51.058;13.826;2022-12-01T12:48:49;67.57;;;33.90;;
64619;SDS011;51029;51.058;13.826;2022-12-01T12:51:24;65.10;;;33.87;;
64619;SDS011;51029;51.058;13.826;2022-12-01T12:56:36;70.13;;;36.20;;
64619;SDS011;51029;51.058;13.826;2022-12-01T12:59:21;60.43;;;33.43;;
64619;SDS011;51029;51.058;13.826;2022-12-01T13:02:08;63.60;;;33.37;;
64619;SDS011;51029;51.058;13.826;2022-12-01T13:12:55;63.50;;;33.57;;
64619;SDS011;51029;51.058;13.826;2022-12-01T13:15:24;63.80;;;33.87;;
64619;SDS011;51029;51.058;13.826;2022-12-01T13:17:52;64.13;;;32.73;;
64619;SDS011;51029;51.058;13.826;2022-12-01T13:20:26;60.10;;;32.83;;
64619;SDS011;51029;51.058;13.826;2022-12-01T13:22:54;61.97;;;32.80;;
64619;SDS011;51029;51.058;13.826;2022-12-01T13:25:23;59.63;;;33.73;;
64619;SDS011;51029;51.058;13.826;2022-12-01T13:27:53;64.27;;;34.10;;
64619;SDS011;51029;51.058;13.826;2022-12-01T13:30:23;61.00;;;33.43;;
64619;SDS011;51029;51.058;13.826;2022-12-01T13:33:23;60.23;;;33.43;;
64619;SDS011;51029;51.058;13.826;2022-12-01T13:35:42;59.53;;;32.07;;
64619;SDS011;51029;51.058;13.826;2022-12-01T13:40:45;60.90;;;33.47;;
64619;SDS011;51029;51.058;13.826;2022-12-01T13:43:19;62.43;;;32.83;;
64619;SDS011;51029;51.058;13.826;2022-12-01T13:45:46;59.90;;;33.00;;
64619;SDS011;51029;51.058;13.826;2022-12-01T13:48:29;64.13;;;33.83;;
64619;SDS011;51029;51.058;13.826;2022-12-01T13:51:18;58.27;;;31.93;;
64619;SDS011;51029;51.058;13.826;2022-12-01T13:56:59;58.80;;;31.60;;
64619;SDS011;51029;51.058;13.826;2022-12-01T13:59:37;60.13;;;32.37;;
64619;SDS011;51029;51.058;13.826;2022-12-01T14:02:20;60.30;;;32.27;;
64619;SDS011;51029;51.058;13.826;2022-12-01T14:04:45;59.47;;;31.63;;
64619;SDS011;51029;51.058;13.826;2022-12-01T14:07:18;59.87;;;31.77;;
64619;SDS011;51029;51.058;13.826;2022-12-01T14:09:52;61.40;;;32.87;;
64619;SDS011;51029;51.058;13.826;2022-12-01T14:12:26;60.13;;;31.03;;
64619;SDS011;51029;51.058;13.826;2022-12-01T14:14:57;59.03;;;32.00;;
64619;SDS011;51029;51.058;13.826;2022-12-01T14:17:29;59.63;;;32.30;;
64619;SDS011;51029;51.058;13.826;2022-12-01T14:20:17;58.70;;;31.23;;
64619;SDS011;51029;51.058;13.826;2022-12-01T14:22:45;62.93;;;33.03;;
64619;SDS011;51029;51.058;13.826;2022-12-01T14:27:46;62.43;;;32.97;;
64619;SDS011;51029;51.058;13.826;2022-12-01T14:36:19;70.27;;;35.23;;
64619;SDS011;51029;51.058;13.826;2022-12-01T14:38:45;72.37;;;35.73;;
64619;SDS011;51029;51.058;13.826;2022-12-01T14:41:15;67.87;;;36.40;;
64619;SDS011;51029;51.058;13.826;2022-12-01T14:43:46;74.50;;;36.43;;
64619;SDS011;51029;51.058;13.826;2022-12-01T14:46:47;67.73;;;35.50;;
64619;SDS011;51029;51.058;13.826;2022-12-01T14:49:40;66.53;;;34.93;;
64619;SDS011;51029;51.058;13.826;2022-12-01T14:52:12;66.20;;;35.80;;
64619;SDS011;51029;51.058;13.826;2022-12-01T14:55:02;67.43;;;34.87;;
64619;SDS011;51029;51.058;13.826;2022-12-01T14:57:32;67.00;;;34.93;;
64619;SDS011;51029;51.058;13.826;2022-12-01T15:00:06;65.20;;;35.53;;
64619;SDS011;51029;51.058;13.826;2022-12-01T15:02:39;65.87;;;34.73;;
64619;SDS011;51029;51.058;13.826;2022-12-01T15:05:14;69.03;;;33.70;;
64619;SDS011;51029;51.058;13.826;2022-12-01T15:07:42;66.50;;;34.67;;
64619;SDS011;51029;51.058;13.826;2022-12-01T15:12:42;64.67;;;35.00;;
64619;SDS011;51029;51.058;13.826;2022-12-01T15:15:14;63.27;;;34.10;;
64619;SDS011;51029;51.058;13.826;2022-12-01T15:17:48;61.30;;;33.13;;
64619;SDS011;51029;51.058;13.826;2022-12-01T15:20:28;63.50;;;33.37;;
64619;SDS011;51029;51.058;13.826;2022-12-01T15:22:54;56.70;;;31.00;;
64619;SDS011;51029;51.058;13.826;2022-12-01T15:25:20;61.33;;;33.60;;
64619;SDS011;51029;51.058;13.826;2022-12-01T15:27:59;61.90;;;34.10;;
64619;SDS011;51029;51.058;13.826;2022-12-01T15:30:38;56.67;;;30.87;;
64619;SDS011;51029;51.058;13.826;2022-12-01T15:33:05;55.07;;;32.13;;
64619;SDS011;51029;51.058;13.826;2022-12-01T15:35:39;57.83;;;33.17;;
64619;SDS011;51029;51.058;13.826;2022-12-01T15:38:05;55.63;;;31.97;;
64619;SDS011;51029;51.058;13.826;2022-12-01T15:40:36;60.40;;;32.30;;
64619;SDS011;51029;51.058;13.826;2022-12-01T15:43:06;52.50;;;30.03;;
64619;SDS011;51029;51.058;13.826;2022-12-01T15:45:40;58.73;;;31.03;;
64619;SDS011;51029;51.058;13.826;2022-12-01T15:48:32;61.03;;;31.57;;
64619;SDS011;51029;51.058;13.826;2022-12-01T15:51:01;61.27;;;33.73;;
64619;SDS011;51029;51.058;13.826;2022-12-01T15:53:30;59.53;;;32.97;;
64619;SDS011;51029;51.058;13.826;2022-12-01T15:55:58;59.20;;;34.60;;
64619;SDS011;51029;51.058;13.826;2022-12-01T15:58:30;58.83;;;34.00;;
64619;SDS011;51029;51.058;13.826;2022-12-01T16:00:59;60.47;;;32.83;;
64619;SDS011;51029;51.058;13.826;2022-12-01T16:06:27;55.73;;;31.53;;
64619;SDS011;51029;51.058;13.826;2022-12-01T16:11:29;58.90;;;33.27;;
64619;SDS011;51029;51.058;13.826;2022-12-01T16:13:59;60.50;;;31.17;;
64619;SDS011;51029;51.058;13.826;2022-12-01T16:16:42;57.37;;;31.30;;
64619;SDS011;51029;51.058;13.826;2022-12-01T16:29:56;59.00;;;34.13;;
64619;SDS011;51029;51.058;13.826;2022-12-01T16:32:31;58.50;;;32.47;;
64619;SDS011;51029;51.058;13.826;2022-12-01T16:35:03;63.13;;;33.30;;
64619;SDS011;51029;51.058;13.826;2022-12-01T16:37:50;56.57;;;32.33;;
64619;SDS011;51029;51.058;13.826;2022-12-01T16:40:15;57.53;;;33.17;;
64619;SDS011;51029;51.058;13.826;2022-12-01T16:42:41;57.17;;;33.30;;